sensor_id;sensor_type;location;lat;lon;timestamp;pressure;altitude;pressure_sealevel;temperature;humidity
66273;BME280;58450;52.150;4.466;2022-12-07T00:01:51;101869.94;;;5.33;100.00
66273;BME280;58450;52.150;4.466;2022-12-07T00:04:18;101871.63;;;5.35;100.00
66273;BME280;58450;52.150;4.466;2022-12-07T00:06:46;101883.78;;;5.27;100.00
66273;BME280;58450;52.150;4.466;2022-12-07T00:09:17;101883.06;;;5.25;100.00
66273;BME280;58450;52.150;4.466;2022-12-07T00:11:47;101883.19;;;5.24;100.00
66273;BME280;58450;52.150;4.466;2022-12-07T00:14:16;101871.88;;;5.31;100.00
66273;BME280;58450;52.150;4.466;2022-12-07T00:16:44;101872.81;;;5.42;100.00
66273;BME280;58450;52.150;4.466;2022-12-07T00:19:13;101861.38;;;5.51;100.00
66273;BME280;58450;52.150;4.466;2022-12-07T00:21:41;101873.09;;;5.60;100.00
66273;BME280;58450;52.150;4.466;2022-12-07T00:24:09;101866.50;;;5.64;100.00
66273;BME280;58450;52.150;4.466;2022-12-07T00:26:38;101861.16;;;5.43;100.00
66273;BME280;58450;52.150;4.466;2022-12-07T00:29:07;101850.28;;;5.56;100.00
66273;BME280;58450;52.150;4.466;2022-12-07T00:31:38;101852.38;;;5.52;100.00
66273;BME280;58450;52.150;4.466;2022-12-07T00:34:06;101861.00;;;5.44;100.00
66273;BME280;58450;52.150;4.466;2022-12-07T00:36:36;101862.75;;;5.34;100.00
66273;BME280;58450;52.150;4.466;2022-12-07T00:39:03;101857.97;;;5.49;100.00
66273;BME280;58450;52.150;4.466;2022-12-07T00:41:30;101858.19;;;5.57;100.00
66273;BME280;58450;52.150;4.466;2022-12-07T00:43:58;101854.78;;;5.55;100.00
66273;BME280;58450;52.150;4.466;2022-12-07T00:46:25;101855.00;;;5.64;100.00
66273;BME280;58450;52.150;4.466;2022-12-07T00:48:53;101850.75;;;5.61;100.00
66273;BME280;58450;52.150;4.466;2022-12-07T00:51:21;101843.59;;;5.83;100.00
66273;BME280;58450;52.150;4.466;2022-12-07T00:53:51;101852.19;;;5.86;100.00
66273;BME280;58450;52.150;4.466;2022-12-07T00:56:20;101847.56;;;5.88;100.00
66273;BME280;58450;52.150;4.466;2022-12-07T00:58:52;101853.75;;;5.89;100.00
66273;BME280;58450;52.150;4.466;2022-12-07T01:01:21;101853.75;;;5.89;100.00
66273;BME280;58450;52.150;4.466;2022-12-07T01:03:49;101856.28;;;5.90;100.00
66273;BME280;58450;52.150;4.466;2022-12-07T01:06:17;101849.38;;;5.88;100.00
66273;BME280;58450;52.150;4.466;2022-12-07T01:08:46;101850.47;;;5.85;100.00
66273;BME280;58450;52.150;4.466;2022-12-07T01:11:15;101847.16;;;5.93;100.00
66273;BME280;58450;52.150;4.466;2022-12-07T01:13:44;101848.25;;;5.90;100.00
66273;BME280;58450;52.150;4.466;2022-12-07T01:16:13;101848.53;;;5.87;100.00
66273;BME280;58450;52.150;4.466;2022-12-07T01:18:42;101850.22;;;5.88;100.00
66273;BME280;58450;52.150;4.466;2022-12-07T01:21:13;101853.16;;;5.85;100.00
66273;BME280;58450;52.150;4.466;2022-12-07T01:23:42;101858.38;;;5.87;100.00
66273;BME280;58450;52.150;4.466;2022-12-07T01:26:11;101859.63;;;5.83;100.00
66273;BME280;58450;52.150;4.466;2022-12-07T01:28:40;101870.16;;;5.84;100.00
66273;BME280;58450;52.150;4.466;2022-12-07T01:31:09;101864.56;;;5.87;100.00
66273;BME280;58450;52.150;4.466;2022-12-07T01:33:38;101868.19;;;5.86;100.00
66273;BME280;58450;52.150;4.466;2022-12-07T01:36:07;101859.66;;;5.92;100.00
66273;BME280;58450;52.150;4.466;2022-12-07T01:38:39;101856.88;;;5.94;100.00
66273;BME280;58450;52.150;4.466;2022-12-07T01:41:07;101857.72;;;5.95;100.00
66273;BME280;58450;52.150;4.466;2022-12-07T01:43:35;101856.28;;;5.90;100.00
66273;BME280;58450;52.150;4.466;2022-12-07T01:46:04;101853.34;;;5.94;100.00
66273;BME280;58450;52.150;4.466;2022-12-07T01:48:32;101854.06;;;5.96;100.00
66273;BME280;58450;52.150;4.466;2022-12-07T01:51:05;101852.75;;;6.01;100.00
66273;BME280;58450;52.150;4.466;2022-12-07T01:53:36;101847.09;;;5.83;100.00
66273;BME280;58450;52.150;4.466;2022-12-07T01:56:07;101848.41;;;5.89;100.00
66273;BME280;58450;52.150;4.466;2022-12-07T01:58:37;101840.66;;;5.86;100.00
66273;BME280;58450;52.150;4.466;2022-12-07T02:01:06;101833.28;;;5.78;100.00
66273;BME280;58450;52.150;4.466;2022-12-07T02:03:34;101833.38;;;5.67;100.00
66273;BME280;58450;52.150;4.466;2022-12-07T02:06:06;101839.69;;;5.66;100.00
66273;BME280;58450;52.150;4.466;2022-12-07T02:08:34;101843.50;;;5.30;100.00
66273;BME280;58450;52.150;4.466;2022-12-07T02:11:02;101842.22;;;5.46;100.00
66273;BME280;58450;52.150;4.466;2022-12-07T02:13:31;101841.44;;;5.55;100.00
66273;BME280;58450;52.150;4.466;2022-12-07T02:16:04;101833.91;;;5.60;100.00
66273;BME280;58450;52.150;4.466;2022-12-07T02:18:44;101833.50;;;5.65;100.00
66273;BME280;58450;52.150;4.466;2022-12-07T02:21:24;101841.50;;;5.65;100.00
66273;BME280;58450;52.150;4.466;2022-12-07T02:24:10;101844.63;;;5.70;100.00
66273;BME280;58450;52.150;4.466;2022-12-07T02:29:54;101818.13;;;5.57;100.00
66273;BME280;58450;52.150;4.466;2022-12-07T02:32:27;101829.06;;;5.54;100.00
66273;BME280;58450;52.150;4.466;2022-12-07T02:35:06;101832.00;;;5.51;100.00
66273;BME280;58450;52.150;4.466;2022-12-07T02:37:39;101814.28;;;5.50;100.00
66273;BME280;58450;52.150;4.466;2022-12-07T02:40:12;101815.13;;;5.51;100.00
66273;BME280;58450;52.150;4.466;2022-12-07T02:42:45;101820.25;;;5.42;100.00
66273;BME280;58450;52.150;4.466;2022-12-07T02:45:22;101827.44;;;5.42;100.00
66273;BME280;58450;52.150;4.466;2022-12-07T02:47:55;101829.44;;;5.28;100.00
66273;BME280;58450;52.150;4.466;2022-12-07T02:50:25;101821.03;;;5.33;100.00
66273;BME280;58450;52.150;4.466;2022-12-07T02:52:53;101825.28;;;5.36;100.00
66273;BME280;58450;52.150;4.466;2022-12-07T02:55:21;101830.47;;;5.37;100.00
66273;BME280;58450;52.150;4.466;2022-12-07T02:58:01;101830.94;;;5.42;100.00
66273;BME280;58450;52.150;4.466;2022-12-07T03:00:43;101824.34;;;5.46;100.00
66273;BME280;58450;52.150;4.466;2022-12-07T03:03:18;101832.97;;;5.50;100.00
66273;BME280;58450;52.150;4.466;2022-12-07T03:05:49;101839.28;;;5.49;100.00
66273;BME280;58450;52.150;4.466;2022-12-07T03:08:28;101839.88;;;5.53;100.00
66273;BME280;58450;52.150;4.466;2022-12-07T03:11:02;101827.84;;;5.58;100.00
66273;BME280;58450;52.150;4.466;2022-12-07T03:13:33;101830.97;;;5.64;100.00
66273;BME280;58450;52.150;4.466;2022-12-07T03:16:07;101824.50;;;5.66;100.00
66273;BME280;58450;52.150;4.466;2022-12-07T03:18:42;101822.81;;;5.65;100.00
66273;BME280;58450;52.150;4.466;2022-12-07T03:21:14;101828.28;;;5.64;100.00
66273;BME280;58450;52.150;4.466;2022-12-07T03:23:45;101818.59;;;5.62;100.00
66273;BME280;58450;52.150;4.466;2022-12-07T03:26:16;101823.66;;;5.66;100.00
66273;BME280;58450;52.150;4.466;2022-12-07T03:28:48;101822.09;;;5.63;100.00
66273;BME280;58450;52.150;4.466;2022-12-07T03:31:22;101811.81;;;5.58;100.00
66273;BME280;58450;52.150;4.466;2022-12-07T03:33:57;101820.53;;;5.60;100.00
66273;BME280;58450;52.150;4.466;2022-12-07T03:36:29;101811.34;;;5.53;100.00
66273;BME280;58450;52.150;4.466;2022-12-07T03:39:01;101811.34;;;5.53;100.00
66273;BME280;58450;52.150;4.466;2022-12-07T03:41:36;101802.47;;;5.53;100.00
66273;BME280;58450;52.150;4.466;2022-12-07T03:44:05;101811.09;;;5.56;100.00
66273;BME280;58450;52.150;4.466;2022-12-07T03:46:37;101811.09;;;5.56;100.00
66273;BME280;58450;52.150;4.466;2022-12-07T03:49:11;101807.31;;;5.59;100.00
66273;BME280;58450;52.150;4.466;2022-12-07T03:51:46;101807.44;;;5.57;100.00
66273;BME280;58450;52.150;4.466;2022-12-07T03:54:22;101802.69;;;5.61;100.00
66273;BME280;58450;52.150;4.466;2022-12-07T03:56:53;101802.31;;;5.66;100.00
66273;BME280;58450;52.150;4.466;2022-12-07T03:59:22;101808.09;;;5.71;100.00
66273;BME280;58450;52.150;4.466;2022-12-07T04:01:55;101803.19;;;5.76;100.00
66273;BME280;58450;52.150;4.466;2022-12-07T04:04:23;101809.13;;;5.80;100.00
66273;BME280;58450;52.150;4.466;2022-12-07T04:06:51;101812.78;;;5.79;100.00
66273;BME280;58450;52.150;4.466;2022-12-07T04:09:19;101793.47;;;5.75;100.00
66273;BME280;58450;52.150;4.466;2022-12-07T04:11:46;101785.75;;;5.72;100.00
66273;BME280;58450;52.150;4.466;2022-12-07T04:14:13;101783.47;;;5.67;100.00
66273;BME280;58450;52.150;4.466;2022-12-07T04:16:47;101796.69;;;5.69;100.00
66273;BME280;58450;52.150;4.466;2022-12-07T04:19:17;101790.50;;;5.68;100.00
66273;BME280;58450;52.150;4.466;2022-12-07T04:21:46;101795.28;;;5.65;100.00
66273;BME280;58450;52.150;4.466;2022-12-07T04:24:14;101796.38;;;5.62;100.00
66273;BME280;58450;52.150;4.466;2022-12-07T04:26:41;101798.56;;;5.57;100.00
66273;BME280;58450;52.150;4.466;2022-12-07T04:29:09;101793.38;;;5.55;100.00
66273;BME280;58450;52.150;4.466;2022-12-07T04:31:37;101784.31;;;5.46;100.00
66273;BME280;58450;52.150;4.466;2022-12-07T04:34:06;101788.94;;;5.44;100.00
66273;BME280;58450;52.150;4.466;2022-12-07T04:36:35;101787.25;;;5.43;100.00
66273;BME280;58450;52.150;4.466;2022-12-07T04:39:02;101787.19;;;5.33;100.00
66273;BME280;58450;52.150;4.466;2022-12-07T04:41:30;101793.91;;;5.28;100.00
66273;BME280;58450;52.150;4.466;2022-12-07T04:44:00;101786.16;;;5.25;100.00
66273;BME280;58450;52.150;4.466;2022-12-07T04:46:29;101786.88;;;5.27;100.00
66273;BME280;58450;52.150;4.466;2022-12-07T04:48:58;101785.56;;;5.42;100.00
66273;BME280;58450;52.150;4.466;2022-12-07T04:51:27;101787.84;;;5.47;100.00
66273;BME280;58450;52.150;4.466;2022-12-07T04:53:56;101777.28;;;5.45;100.00
66273;BME280;58450;52.150;4.466;2022-12-07T04:56:24;101782.63;;;5.45;100.00
66273;BME280;58450;52.150;4.466;2022-12-07T04:58:52;101777.28;;;5.45;100.00
66273;BME280;58450;52.150;4.466;2022-12-07T05:01:21;101767.47;;;5.46;100.00
66273;BME280;58450;52.150;4.466;2022-12-07T05:03:49;101778.59;;;5.51;100.00
66273;BME280;58450;52.150;4.466;2022-12-07T05:06:16;101771.69;;;5.48;100.00
66273;BME280;58450;52.150;4.466;2022-12-07T05:08:44;101773.53;;;5.48;100.00
66273;BME280;58450;52.150;4.466;2022-12-07T05:11:13;101763.09;;;5.45;100.00
66273;BME280;58450;52.150;4.466;2022-12-07T05:14:02;101767.47;;;5.46;100.00
66273;BME280;58450;52.150;4.466;2022-12-07T05:16:30;101764.06;;;5.44;100.00
66273;BME280;58450;52.150;4.466;2022-12-07T05:18:57;101764.19;;;5.42;100.00
66273;BME280;58450;52.150;4.466;2022-12-07T05:21:25;101757.75;;;5.45;100.00
66273;BME280;58450;52.150;4.466;2022-12-07T05:23:52;101767.31;;;5.47;100.00
66273;BME280;58450;52.150;4.466;2022-12-07T05:26:21;101766.50;;;5.47;100.00
66273;BME280;58450;52.150;4.466;2022-12-07T05:28:49;101769.63;;;5.52;100.00
66273;BME280;58450;52.150;4.466;2022-12-07T05:31:17;101765.97;;;5.53;100.00
66273;BME280;58450;52.150;4.466;2022-12-07T05:33:45;101768.38;;;5.56;100.00
66273;BME280;58450;52.150;4.466;2022-12-07T05:36:12;101764.13;;;5.54;100.00
66273;BME280;58450;52.150;4.466;2022-12-07T05:38:39;101763.28;;;5.53;100.00
66273;BME280;58450;52.150;4.466;2022-12-07T05:41:07;101767.50;;;5.56;100.00
66273;BME280;58450;52.150;4.466;2022-12-07T05:43:58;101765.28;;;5.61;100.00
66273;BME280;58450;52.150;4.466;2022-12-07T05:46:25;101765.03;;;5.64;100.00
66273;BME280;58450;52.150;4.466;2022-12-07T05:48:53;101769.28;;;5.67;100.00
66273;BME280;58450;52.150;4.466;2022-12-07T05:51:20;101770.00;;;5.69;100.00
66273;BME280;58450;52.150;4.466;2022-12-07T05:53:48;101769.13;;;5.68;100.00
66273;BME280;58450;52.150;4.466;2022-12-07T05:56:15;101757.63;;;5.68;100.00
66273;BME280;58450;52.150;4.466;2022-12-07T05:58:42;101761.28;;;5.67;100.00
66273;BME280;58450;52.150;4.466;2022-12-07T06:01:43;101757.03;;;5.64;100.00
66273;BME280;58450;52.150;4.466;2022-12-07T06:04:10;101768.88;;;5.71;100.00
66273;BME280;58450;52.150;4.466;2022-12-07T06:06:37;101771.25;;;5.65;100.00
66273;BME280;58450;52.150;4.466;2022-12-07T06:09:04;101767.25;;;5.59;100.00
66273;BME280;58450;52.150;4.466;2022-12-07T06:11:32;101763.59;;;5.60;100.00
66273;BME280;58450;52.150;4.466;2022-12-07T06:14:16;101765.81;;;5.55;100.00
66273;BME280;58450;52.150;4.466;2022-12-07T06:16:45;101757.25;;;5.51;100.00
66273;BME280;58450;52.150;4.466;2022-12-07T06:19:12;101757.25;;;5.51;100.00
66273;BME280;58450;52.150;4.466;2022-12-07T06:21:39;101759.66;;;5.54;100.00
66273;BME280;58450;52.150;4.466;2022-12-07T06:24:07;101770.06;;;5.57;100.00
66273;BME280;58450;52.150;4.466;2022-12-07T06:26:36;101766.88;;;5.64;100.00
66273;BME280;58450;52.150;4.466;2022-12-07T06:29:03;101776.78;;;5.73;100.00
66273;BME280;58450;52.150;4.466;2022-12-07T06:31:30;101781.50;;;5.69;100.00
66273;BME280;58450;52.150;4.466;2022-12-07T06:33:59;101772.03;;;5.55;100.00
66273;BME280;58450;52.150;4.466;2022-12-07T06:36:27;101770.00;;;5.47;100.00
66273;BME280;58450;52.150;4.466;2022-12-07T06:38:54;101770.84;;;5.48;100.00
66273;BME280;58450;52.150;4.466;2022-12-07T06:41:22;101772.81;;;5.46;100.00
66273;BME280;58450;52.150;4.466;2022-12-07T06:43:50;101774.88;;;5.42;100.00
66273;BME280;58450;52.150;4.466;2022-12-07T06:46:17;101783.47;;;5.46;100.00
66273;BME280;58450;52.150;4.466;2022-12-07T06:48:45;101778.16;;;5.46;100.00
66273;BME280;58450;52.150;4.466;2022-12-07T06:51:14;101783.34;;;5.47;100.00
66273;BME280;58450;52.150;4.466;2022-12-07T06:53:41;101778.41;;;5.43;100.00
66273;BME280;58450;52.150;4.466;2022-12-07T06:56:09;101782.88;;;5.42;100.00
66273;BME280;58450;52.150;4.466;2022-12-07T06:58:36;101778.50;;;5.41;100.00
66273;BME280;58450;52.150;4.466;2022-12-07T07:01:08;101776.09;;;5.38;100.00
66273;BME280;58450;52.150;4.466;2022-12-07T07:03:35;101774.56;;;5.36;100.00
66273;BME280;58450;52.150;4.466;2022-12-07T07:06:03;101770.44;;;5.31;100.00
66273;BME280;58450;52.150;4.466;2022-12-07T07:08:32;101771.44;;;5.30;100.00
66273;BME280;58450;52.150;4.466;2022-12-07T07:10:59;101777.03;;;5.27;100.00
66273;BME280;58450;52.150;4.466;2022-12-07T07:13:26;101776.56;;;5.22;100.00
66273;BME280;58450;52.150;4.466;2022-12-07T07:15:54;101777.78;;;5.18;100.00
66273;BME280;58450;52.150;4.466;2022-12-07T07:18:21;101782.75;;;5.23;100.00
66273;BME280;58450;52.150;4.466;2022-12-07T07:20:49;101782.75;;;5.23;100.00
66273;BME280;58450;52.150;4.466;2022-12-07T07:23:17;101774.41;;;5.16;100.00
66273;BME280;58450;52.150;4.466;2022-12-07T07:25:46;101779.19;;;5.33;100.00
66273;BME280;58450;52.150;4.466;2022-12-07T07:28:14;101785.94;;;5.38;100.00
66273;BME280;58450;52.150;4.466;2022-12-07T07:30:42;101780.09;;;5.44;100.00
66273;BME280;58450;52.150;4.466;2022-12-07T07:33:09;101786.00;;;5.47;100.00
66273;BME280;58450;52.150;4.466;2022-12-07T07:35:37;101782.06;;;5.42;100.00
66273;BME280;58450;52.150;4.466;2022-12-07T07:38:04;101786.16;;;5.46;100.00
66273;BME280;58450;52.150;4.466;2022-12-07T07:40:33;101780.94;;;5.44;100.00
66273;BME280;58450;52.150;4.466;2022-12-07T07:43:02;101781.78;;;5.45;100.00
66273;BME280;58450;52.150;4.466;2022-12-07T07:45:29;101781.53;;;5.48;100.00
66273;BME280;58450;52.150;4.466;2022-12-07T07:47:57;101786.47;;;5.53;100.00
66273;BME280;58450;52.150;4.466;2022-12-07T07:50:24;101785.50;;;5.54;100.00
66273;BME280;58450;52.150;4.466;2022-12-07T07:52:51;101787.78;;;5.58;100.00
66273;BME280;58450;52.150;4.466;2022-12-07T07:55:18;101777.47;;;5.54;100.00
66273;BME280;58450;52.150;4.466;2022-12-07T07:57:46;101777.44;;;5.44;100.00
66273;BME280;58450;52.150;4.466;2022-12-07T08:00:15;101780.81;;;5.46;100.00
66273;BME280;58450;52.150;4.466;2022-12-07T08:02:43;101794.16;;;5.46;100.00
66273;BME280;58450;52.150;4.466;2022-12-07T08:05:11;101789.66;;;5.46;100.00
66273;BME280;58450;52.150;4.466;2022-12-07T08:07:40;101789.91;;;5.43;100.00
66273;BME280;58450;52.150;4.466;2022-12-07T08:10:08;101789.53;;;5.48;100.00
66273;BME280;58450;52.150;4.466;2022-12-07T08:12:38;101793.13;;;5.58;100.00
66273;BME280;58450;52.150;4.466;2022-12-07T08:15:29;101792.91;;;5.71;100.00
66273;BME280;58450;52.150;4.466;2022-12-07T08:17:57;101793.13;;;5.89;100.00
66273;BME280;58450;52.150;4.466;2022-12-07T08:20:24;101792.50;;;5.97;100.00
66273;BME280;58450;52.150;4.466;2022-12-07T08:22:52;101784.03;;;5.92;100.00
66273;BME280;58450;52.150;4.466;2022-12-07T08:25:19;101787.25;;;5.96;100.00
66273;BME280;58450;52.150;4.466;2022-12-07T08:27:47;101787.47;;;6.04;100.00
66273;BME280;58450;52.150;4.466;2022-12-07T08:30:15;101794.31;;;6.18;100.00
66273;BME280;58450;52.150;4.466;2022-12-07T08:32:45;101788.00;;;6.29;100.00
66273;BME280;58450;52.150;4.466;2022-12-07T08:35:13;101786.75;;;6.33;100.00
66273;BME280;58450;52.150;4.466;2022-12-07T08:37:41;101789.97;;;6.27;100.00
66273;BME280;58450;52.150;4.466;2022-12-07T08:40:09;101793.72;;;6.14;100.00
66273;BME280;58450;52.150;4.466;2022-12-07T08:42:40;101789.09;;;6.16;100.00
66273;BME280;58450;52.150;4.466;2022-12-07T08:45:10;101794.59;;;6.25;100.00
66273;BME280;58450;52.150;4.466;2022-12-07T08:47:40;101784.38;;;6.40;100.00
66273;BME280;58450;52.150;4.466;2022-12-07T08:50:12;101785.06;;;6.32;100.00
66273;BME280;58450;52.150;4.466;2022-12-07T08:52:41;101793.88;;;6.23;100.00
66273;BME280;58450;52.150;4.466;2022-12-07T08:55:09;101790.22;;;6.14;100.00
66273;BME280;58450;52.150;4.466;2022-12-07T08:57:37;101796.22;;;6.06;100.00
66273;BME280;58450;52.150;4.466;2022-12-07T09:00:06;101786.50;;;6.05;100.00
66273;BME280;58450;52.150;4.466;2022-12-07T09:02:34;101783.34;;;6.00;100.00
66273;BME280;58450;52.150;4.466;2022-12-07T09:05:02;101795.16;;;5.76;100.00
66273;BME280;58450;52.150;4.466;2022-12-07T09:07:32;101793.31;;;5.67;100.00
66273;BME280;58450;52.150;4.466;2022-12-07T09:10:00;101794.59;;;5.72;100.00
66273;BME280;58450;52.150;4.466;2022-12-07T09:12:27;101785.91;;;5.80;100.00
66273;BME280;58450;52.150;4.466;2022-12-07T09:14:55;101787.69;;;5.91;100.00
66273;BME280;58450;52.150;4.466;2022-12-07T09:17:22;101794.16;;;6.19;100.00
66273;BME280;58450;52.150;4.466;2022-12-07T09:19:50;101790.03;;;6.46;100.00
66273;BME280;58450;52.150;4.466;2022-12-07T09:22:17;101785.56;;;6.76;100.00
66273;BME280;58450;52.150;4.466;2022-12-07T09:24:46;101776.72;;;7.05;100.00
66273;BME280;58450;52.150;4.466;2022-12-07T09:27:13;101780.53;;;7.32;100.00
66273;BME280;58450;52.150;4.466;2022-12-07T09:29:41;101783.16;;;7.62;100.00
66273;BME280;58450;52.150;4.466;2022-12-07T09:32:08;101785.38;;;7.66;100.00
66273;BME280;58450;52.150;4.466;2022-12-07T09:34:35;101786.38;;;7.75;100.00
66273;BME280;58450;52.150;4.466;2022-12-07T09:37:03;101786.50;;;7.83;100.00
66273;BME280;58450;52.150;4.466;2022-12-07T09:39:30;101786.53;;;7.64;100.00
66273;BME280;58450;52.150;4.466;2022-12-07T09:41:59;101785.84;;;7.52;100.00
66273;BME280;58450;52.150;4.466;2022-12-07T09:44:30;101780.66;;;7.31;100.00
66273;BME280;58450;52.150;4.466;2022-12-07T09:46:58;101776.56;;;7.07;100.00
66273;BME280;58450;52.150;4.466;2022-12-07T09:49:27;101778.41;;;6.87;100.00
66273;BME280;58450;52.150;4.466;2022-12-07T09:51:59;101781.78;;;6.79;100.00
66273;BME280;58450;52.150;4.466;2022-12-07T09:54:29;101778.81;;;6.72;100.00
66273;BME280;58450;52.150;4.466;2022-12-07T09:56:59;101776.84;;;6.74;100.00
66273;BME280;58450;52.150;4.466;2022-12-07T09:59:26;101778.00;;;6.91;100.00
66273;BME280;58450;52.150;4.466;2022-12-07T10:01:54;101773.34;;;7.13;100.00
66273;BME280;58450;52.150;4.466;2022-12-07T10:04:22;101770.22;;;7.47;100.00
66273;BME280;58450;52.150;4.466;2022-12-07T10:06:52;101776.09;;;7.61;100.00
66273;BME280;58450;52.150;4.466;2022-12-07T10:09:20;101769.19;;;7.68;100.00
66273;BME280;58450;52.150;4.466;2022-12-07T10:12:04;101768.38;;;7.48;100.00
66273;BME280;58450;52.150;4.466;2022-12-07T10:14:35;101759.75;;;7.64;100.00
66273;BME280;58450;52.150;4.466;2022-12-07T10:17:19;101765.53;;;7.59;100.00
66273;BME280;58450;52.150;4.466;2022-12-07T10:20:08;101765.88;;;8.22;100.00
66273;BME280;58450;52.150;4.466;2022-12-07T10:22:53;101753.47;;;8.49;100.00
66273;BME280;58450;52.150;4.466;2022-12-07T10:25:26;101762.97;;;8.05;100.00
66273;BME280;58450;52.150;4.466;2022-12-07T10:28:09;101762.63;;;7.90;100.00
66273;BME280;58450;52.150;4.466;2022-12-07T10:30:50;101760.69;;;7.82;100.00
66273;BME280;58450;52.150;4.466;2022-12-07T10:33:29;101756.16;;;7.83;100.00
66273;BME280;58450;52.150;4.466;2022-12-07T10:35:59;101746.75;;;7.69;100.00
66273;BME280;58450;52.150;4.466;2022-12-07T10:38:28;101747.50;;;7.51;100.00
66273;BME280;58450;52.150;4.466;2022-12-07T10:41:04;101743.50;;;7.65;100.00
66273;BME280;58450;52.150;4.466;2022-12-07T10:43:34;101737.75;;;7.98;100.00
66273;BME280;58450;52.150;4.466;2022-12-07T10:46:17;101734.78;;;8.29;100.00
66273;BME280;58450;52.150;4.466;2022-12-07T10:49:08;101725.44;;;8.79;100.00
66273;BME280;58450;52.150;4.466;2022-12-07T10:51:56;101722.16;;;9.56;100.00
66273;BME280;58450;52.150;4.466;2022-12-07T10:54:33;101724.53;;;9.94;100.00
66273;BME280;58450;52.150;4.466;2022-12-07T10:57:22;101716.19;;;10.05;100.00
66273;BME280;58450;52.150;4.466;2022-12-07T11:00:10;101712.81;;;10.63;100.00
66273;BME280;58450;52.150;4.466;2022-12-07T11:02:50;101719.00;;;9.96;100.00
66273;BME280;58450;52.150;4.466;2022-12-07T11:05:29;101711.47;;;8.57;100.00
66273;BME280;58450;52.150;4.466;2022-12-07T11:08:09;101712.31;;;8.12;100.00
66273;BME280;58450;52.150;4.466;2022-12-07T11:10:46;101712.19;;;8.04;100.00
66273;BME280;58450;52.150;4.466;2022-12-07T11:13:23;101706.47;;;8.17;100.00
66273;BME280;58450;52.150;4.466;2022-12-07T11:16:01;101705.44;;;8.27;100.00
66273;BME280;58450;52.150;4.466;2022-12-07T11:18:36;101702.28;;;8.32;100.00
66273;BME280;58450;52.150;4.466;2022-12-07T11:21:13;101695.72;;;8.26;100.00
66273;BME280;58450;52.150;4.466;2022-12-07T11:23:52;101700.59;;;8.31;100.00
66273;BME280;58450;52.150;4.466;2022-12-07T11:26:38;101703.84;;;7.79;100.00
66273;BME280;58450;52.150;4.466;2022-12-07T11:29:21;101710.03;;;7.42;100.00
66273;BME280;58450;52.150;4.466;2022-12-07T11:32:04;101699.78;;;7.27;100.00
66273;BME280;58450;52.150;4.466;2022-12-07T11:34:45;101700.53;;;7.00;100.00
66273;BME280;58450;52.150;4.466;2022-12-07T11:37:21;101703.34;;;6.88;100.00
66273;BME280;58450;52.150;4.466;2022-12-07T11:39:55;101703.78;;;6.74;100.00
66273;BME280;58450;52.150;4.466;2022-12-07T11:42:29;101705.59;;;6.54;100.00
66273;BME280;58450;52.150;4.466;2022-12-07T11:45:02;101706.97;;;6.38;100.00
66273;BME280;58450;52.150;4.466;2022-12-07T11:47:43;101702.84;;;6.04;100.00
66273;BME280;58450;52.150;4.466;2022-12-07T11:50:18;101707.66;;;5.89;100.00
66273;BME280;58450;52.150;4.466;2022-12-07T11:52:53;101705.50;;;5.83;100.00
66273;BME280;58450;52.150;4.466;2022-12-07T11:55:26;101694.66;;;5.75;100.00
66273;BME280;58450;52.150;4.466;2022-12-07T11:58:01;101684.75;;;5.56;100.00
66273;BME280;58450;52.150;4.466;2022-12-07T12:00:31;101684.47;;;5.59;100.00
66273;BME280;58450;52.150;4.466;2022-12-07T12:03:03;101678.88;;;5.62;100.00
66273;BME280;58450;52.150;4.466;2022-12-07T12:05:38;101678.25;;;5.80;100.00
66273;BME280;58450;52.150;4.466;2022-12-07T12:08:10;101668.72;;;5.97;100.00
66273;BME280;58450;52.150;4.466;2022-12-07T12:10:46;101668.97;;;6.15;100.00
66273;BME280;58450;52.150;4.466;2022-12-07T12:16:35;101660.69;;;6.67;100.00
66273;BME280;58450;52.150;4.466;2022-12-07T12:19:22;101657.16;;;6.96;100.00
66273;BME280;58450;52.150;4.466;2022-12-07T12:22:00;101652.16;;;7.21;100.00
66273;BME280;58450;52.150;4.466;2022-12-07T12:24:37;101653.00;;;7.31;100.00
66273;BME280;58450;52.150;4.466;2022-12-07T12:27:07;101654.00;;;7.58;100.00
66273;BME280;58450;52.150;4.466;2022-12-07T12:29:37;101644.34;;;7.75;100.00
66273;BME280;58450;52.150;4.466;2022-12-07T12:32:13;101645.28;;;8.12;100.00
66273;BME280;58450;52.150;4.466;2022-12-07T12:34:59;101640.16;;;8.37;100.00
66273;BME280;58450;52.150;4.466;2022-12-07T12:37:44;101646.00;;;8.68;100.00
66273;BME280;58450;52.150;4.466;2022-12-07T12:55:17;101630.91;;;7.09;100.00
66273;BME280;58450;52.150;4.466;2022-12-07T12:57:47;101618.97;;;7.04;100.00
66273;BME280;58450;52.150;4.466;2022-12-07T13:03:54;101618.84;;;6.95;100.00
66273;BME280;58450;52.150;4.466;2022-12-07T13:06:31;101606.59;;;7.03;100.00
66273;BME280;58450;52.150;4.466;2022-12-07T13:09:03;101602.31;;;7.10;100.00
66273;BME280;58450;52.150;4.466;2022-12-07T13:11:45;101603.56;;;7.16;100.00
66273;BME280;58450;52.150;4.466;2022-12-07T13:17:07;101604.81;;;7.21;100.00
66273;BME280;58450;52.150;4.466;2022-12-07T13:25:24;101591.94;;;6.97;100.00
66273;BME280;58450;52.150;4.466;2022-12-07T13:28:06;101602.72;;;7.15;100.00
66273;BME280;58450;52.150;4.466;2022-12-07T13:30:40;101591.88;;;7.07;100.00
66273;BME280;58450;52.150;4.466;2022-12-07T13:33:13;101588.69;;;7.03;100.00
66273;BME280;58450;52.150;4.466;2022-12-07T13:35:44;101587.69;;;7.04;100.00
66273;BME280;58450;52.150;4.466;2022-12-07T13:38:22;101582.44;;;7.13;100.00
66273;BME280;58450;52.150;4.466;2022-12-07T13:41:04;101575.94;;;7.25;100.00
66273;BME280;58450;52.150;4.466;2022-12-07T13:43:46;101574.19;;;7.34;100.00
66273;BME280;58450;52.150;4.466;2022-12-07T13:46:17;101572.09;;;7.83;100.00